Airport View

Enter AWOS ICAO identifier for current METAR.

ex. KFNL

KBUY 212354Z AUTO 18003KT 10SM CLR 27/16 A3019 RMK AO2 SLP217 T02720156 10328 20272 53000

22 Sep 2019 00:11

Frequency: 135.325

Phone: 336-570-9813

Other Area AWOS: KSCR - KIGX - KGSO - KTDF

TAF KGSO 212320Z 2200/2224 22005KT P6SM FEW060